createdAt,value
2023-05-08T00:00:47.167Z,97672.19
2023-05-08T00:03:14.054Z,97664.41
2023-05-08T00:05:43.595Z,97661.44
2023-05-08T00:08:10.326Z,97663.78
2023-05-08T00:10:37.290Z,97654.03
2023-05-08T00:13:03.946Z,97652.31
2023-05-08T00:15:30.609Z,97645.28
2023-05-08T00:17:57.559Z,97641.25
2023-05-08T00:20:24.329Z,97637.75
2023-05-08T00:22:50.912Z,97640.56
2023-05-08T00:25:17.662Z,97627.13
2023-05-08T00:27:44.228Z,97630.38
2023-05-08T00:30:11.507Z,97624.59
2023-05-08T00:32:38.398Z,97628.63
2023-05-08T00:35:05.329Z,97635.03
2023-05-08T00:37:31.959Z,97626.16
2023-05-08T00:39:58.554Z,97628.69
2023-05-08T00:42:25.228Z,97628.63
2023-05-08T00:44:52.401Z,97631.28
2023-05-08T00:47:22.437Z,97624.44
2023-05-08T00:49:49.380Z,97620.22
2023-05-08T00:52:17.506Z,97624.81
2023-05-08T00:54:44.826Z,97632.88
2023-05-08T00:57:12.617Z,97627.03
2023-05-08T00:59:41.515Z,97630.53
2023-05-08T01:02:08.884Z,97629.69
2023-05-08T01:04:37.170Z,97627.97
2023-05-08T01:07:03.790Z,97627.81
2023-05-08T01:09:30.521Z,97628.69
2023-05-08T01:11:59.871Z,97633.13
2023-05-08T01:14:57.145Z,97626.09
2023-05-08T01:17:43.373Z,97624.63
2023-05-08T01:20:30.231Z,97617.16
2023-05-08T01:23:17.517Z,97621.06
2023-05-08T01:26:22.227Z,97616.31
2023-05-08T01:29:12.035Z,97615.66
2023-05-08T01:32:12.516Z,97621.66
2023-05-08T01:34:51.993Z,97619.97
2023-05-08T01:37:27.833Z,97616.38
2023-05-08T01:40:30.031Z,97613.44
2023-05-08T01:43:27.592Z,97619.84
2023-05-08T01:45:56.575Z,97624.13
2023-05-08T01:48:30.585Z,97618.94
2023-05-08T01:51:04.797Z,97618.16
2023-05-08T01:53:37.180Z,97621.22
2023-05-08T01:56:11.221Z,97626.19
2023-05-08T01:58:39.278Z,97623.03
2023-05-08T02:01:06.258Z,97628.88
2023-05-08T02:03:34.353Z,97630.25
2023-05-08T02:06:02.397Z,97629.41
2023-05-08T02:08:31.266Z,97626.38
2023-05-08T02:11:01.010Z,97628.94
2023-05-08T02:13:29.991Z,97618.97
2023-05-08T02:15:59.101Z,97627.59
2023-05-08T02:18:28.415Z,97625.25
2023-05-08T02:20:56.911Z,97630.56
2023-05-08T02:23:26.747Z,97622.94
2023-05-08T02:25:54.673Z,97617.31
2023-05-08T02:28:24.043Z,97610.38
2023-05-08T02:30:52.644Z,97615.63
2023-05-08T02:33:20.793Z,97630.31
2023-05-08T02:35:50.662Z,97627.59
2023-05-08T02:38:20.789Z,97619.88
2023-05-08T02:40:55.653Z,97623.63
2023-05-08T02:43:22.371Z,97615.63
2023-05-08T02:45:58.331Z,97628.34
2023-05-08T02:48:33.941Z,97622.31
2023-05-08T02:51:18.368Z,97615.63
2023-05-08T02:53:56.658Z,97615.63
2023-05-08T02:56:58.284Z,97609.47
2023-05-08T02:59:39.826Z,97608.44
2023-05-08T03:02:09.476Z,97608.78
2023-05-08T03:04:41.349Z,97608.53
2023-05-08T03:07:08.328Z,97603.13
2023-05-08T03:09:52.098Z,97603.38
2023-05-08T03:12:23.597Z,97597.16
2023-05-08T03:15:00.181Z,97609.13
2023-05-08T03:17:31.330Z,97606.25
2023-05-08T03:20:02.688Z,97608.97
2023-05-08T03:22:31.445Z,97609.38
2023-05-08T03:25:01.536Z,97607.03
2023-05-08T03:27:29.978Z,97602.53
2023-05-08T03:29:58.030Z,97598.94
2023-05-08T03:32:27.677Z,97596.22
2023-05-08T03:34:55.915Z,97608.53
2023-05-08T03:37:22.589Z,97613.97
2023-05-08T03:39:49.330Z,97612.66
2023-05-08T03:42:21.477Z,97615.50
2023-05-08T03:44:52.550Z,97623.28
2023-05-08T03:47:20.217Z,97614.97
2023-05-08T03:49:48.084Z,97619.41
2023-05-08T03:52:15.327Z,97619.94
2023-05-08T03:54:42.186Z,97625.19
2023-05-08T03:57:09.320Z,97628.25
2023-05-08T04:00:03.682Z,97623.75
2023-05-08T04:02:40.715Z,97617.91
2023-05-08T04:05:25.397Z,97622.88
2023-05-08T04:08:09.702Z,97625.63
2023-05-08T04:10:44.414Z,97628.47
2023-05-08T04:13:14.589Z,97625.19
2023-05-08T04:15:52.998Z,97625.31
2023-05-08T04:18:28.290Z,97628.25
2023-05-08T04:20:56.322Z,97620.63
2023-05-08T04:23:24.906Z,97617.72
2023-05-08T04:25:53.392Z,97624.66
2023-05-08T04:28:21.796Z,97624.56
2023-05-08T04:30:49.512Z,97622.38
2023-05-08T04:33:18.690Z,97635.00
2023-05-08T04:35:46.358Z,97636.53
2023-05-08T04:38:12.952Z,97628.31
2023-05-08T04:40:39.565Z,97637.72
2023-05-08T04:43:06.531Z,97640.00
2023-05-08T04:45:36.000Z,97641.19
2023-05-08T04:48:02.709Z,97642.63
2023-05-08T04:50:29.474Z,97639.06
2023-05-08T04:52:57.344Z,97642.84
2023-05-08T04:55:23.986Z,97641.84
2023-05-08T04:57:50.641Z,97641.22
2023-05-08T05:00:17.640Z,97640.91
2023-05-08T05:02:44.328Z,97639.44
2023-05-08T05:05:11.650Z,97643.63
2023-05-08T05:07:38.786Z,97649.63
2023-05-08T05:10:05.822Z,97652.63
2023-05-08T05:12:32.476Z,97648.28
2023-05-08T05:14:59.182Z,97648.72
2023-05-08T05:17:25.853Z,97645.38
2023-05-08T05:19:53.545Z,97650.44
2023-05-08T05:22:20.212Z,97655.34
2023-05-08T05:24:46.985Z,97668.94
2023-05-08T05:27:13.671Z,97665.66
2023-05-08T05:29:40.357Z,97662.41
2023-05-08T05:32:07.532Z,97665.91
2023-05-08T05:34:34.256Z,97667.38
2023-05-08T05:37:01.182Z,97663.06
2023-05-08T05:39:27.768Z,97668.03
2023-05-08T05:41:54.488Z,97667.44
2023-05-08T05:44:21.095Z,97663.09
2023-05-08T05:46:47.719Z,97664.09
2023-05-08T05:49:14.522Z,97652.72
2023-05-08T05:51:41.372Z,97651.63
2023-05-08T05:54:07.994Z,97646.06
2023-05-08T05:56:34.557Z,97640.41
2023-05-08T05:59:01.289Z,97640.66
2023-05-08T06:01:29.218Z,97639.97
2023-05-08T06:03:56.003Z,97640.25
2023-05-08T06:06:22.745Z,97636.09
2023-05-08T06:08:49.418Z,97637.31
2023-05-08T06:11:16.074Z,97635.28
2023-05-08T06:13:44.038Z,97641.06
2023-05-08T06:16:10.702Z,97650.81
2023-05-08T06:18:37.347Z,97655.91
2023-05-08T06:21:04.174Z,97651.56
2023-05-08T06:23:31.153Z,97654.47
2023-05-08T06:25:57.750Z,97648.25
2023-05-08T06:28:26.265Z,97647.19
2023-05-08T06:30:53.166Z,97636.66
2023-05-08T06:33:19.977Z,97653.81
2023-05-08T06:35:49.672Z,97646.78
2023-05-08T06:38:16.815Z,97644.91
2023-05-08T06:40:44.668Z,97655.88
2023-05-08T06:43:12.337Z,97653.53
2023-05-08T06:45:39.998Z,97661.97
2023-05-08T06:48:08.204Z,97652.09
2023-05-08T06:50:38.610Z,97649.56
2023-05-08T06:53:05.551Z,97663.59
2023-05-08T06:55:32.154Z,97661.84
2023-05-08T06:57:58.914Z,97658.69
2023-05-08T07:00:25.713Z,97663.53
2023-05-08T07:02:52.457Z,97656.41
2023-05-08T07:05:20.200Z,97654.06
2023-05-08T07:07:47.023Z,97652.63
2023-05-08T07:10:13.977Z,97653.09
2023-05-08T07:12:43.009Z,97647.19
2023-05-08T07:15:23.960Z,97646.09
2023-05-08T07:17:51.865Z,97652.63
2023-05-08T07:20:18.528Z,97652.91
2023-05-08T07:22:45.128Z,97662.50
2023-05-08T07:25:12.826Z,97659.53
2023-05-08T07:27:39.741Z,97654.19
2023-05-08T07:30:07.027Z,97660.81
2023-05-08T07:32:33.839Z,97664.63
2023-05-08T07:35:02.715Z,97654.66
2023-05-08T07:37:29.552Z,97653.59
2023-05-08T07:39:56.281Z,97650.06
2023-05-08T07:42:22.902Z,97656.59
2023-05-08T07:44:54.978Z,97649.78
2023-05-08T07:47:22.442Z,97655.78
2023-05-08T07:49:49.190Z,97641.88
2023-05-08T07:52:15.828Z,97639.53
2023-05-08T07:54:42.772Z,97640.41
2023-05-08T07:57:09.510Z,97646.59
2023-05-08T07:59:36.137Z,97640.09
2023-05-08T08:02:02.868Z,97641.41
2023-05-08T08:04:29.681Z,97641.47
2023-05-08T08:06:56.415Z,97638.38
2023-05-08T08:09:23.044Z,97640.81
2023-05-08T08:11:49.826Z,97637.31
2023-05-08T08:14:16.551Z,97637.44
2023-05-08T08:16:43.581Z,97636.31
2023-05-08T08:19:10.957Z,97626.00
2023-05-08T08:21:42.720Z,97623.69
2023-05-08T08:24:11.663Z,97623.34
2023-05-08T08:26:38.370Z,97627.22
2023-05-08T08:29:05.032Z,97619.34
2023-05-08T08:31:31.810Z,97623.97
2023-05-08T08:33:58.573Z,97620.00
2023-05-08T08:36:25.301Z,97618.47
2023-05-08T08:38:52.277Z,97615.22
2023-05-08T08:41:19.271Z,97618.13
2023-05-08T08:43:46.123Z,97615.22
2023-05-08T08:46:15.375Z,97614.16
2023-05-08T08:48:46.642Z,97609.19
2023-05-08T08:51:23.888Z,97606.81
2023-05-08T08:53:59.754Z,97608.56
2023-05-08T08:56:27.801Z,97605.50
2023-05-08T08:58:59.566Z,97598.81
2023-05-08T09:01:29.413Z,97592.47
2023-05-08T09:03:59.895Z,97593.09
2023-05-08T09:06:27.724Z,97587.13
2023-05-08T09:09:00.822Z,97582.59
2023-05-08T09:11:28.096Z,97586.06
2023-05-08T09:13:55.748Z,97583.06
2023-05-08T09:16:22.938Z,97585.06
2023-05-08T09:18:49.795Z,97587.28
2023-05-08T09:21:16.474Z,97594.00
2023-05-08T09:24:03.704Z,97611.31
2023-05-08T09:26:39.052Z,97611.38
2023-05-08T09:29:16.753Z,97642.66
2023-05-08T09:31:45.775Z,97649.19
2023-05-08T09:34:27.112Z,97644.91
2023-05-08T09:37:12.101Z,97646.97
2023-05-08T09:39:45.688Z,97649.31
2023-05-08T09:42:12.656Z,97647.88
2023-05-08T09:44:57.468Z,97651.22
2023-05-08T09:47:25.305Z,97659.44
2023-05-08T09:50:08.996Z,97660.28
2023-05-08T09:52:37.397Z,97651.28
2023-05-08T09:55:09.644Z,97654.38
2023-05-08T09:57:39.434Z,97647.72
2023-05-08T10:00:10.264Z,97649.66
2023-05-08T10:02:38.942Z,97644.72
2023-05-08T10:05:27.610Z,97659.53
2023-05-08T10:07:54.431Z,97659.72
2023-05-08T10:10:28.033Z,97659.94
2023-05-08T10:12:56.444Z,97645.34
2023-05-08T10:15:30.107Z,97650.69
2023-05-08T10:18:06.131Z,97662.91
2023-05-08T10:20:34.433Z,97656.84
2023-05-08T10:23:03.615Z,97659.09
2023-05-08T10:25:34.808Z,97657.94
2023-05-08T10:28:18.104Z,97653.44
2023-05-08T10:30:48.943Z,97653.88
2023-05-08T10:33:20.975Z,97649.38
2023-05-08T10:35:48.889Z,97649.28
2023-05-08T10:38:16.923Z,97655.88
2023-05-08T10:40:43.836Z,97661.31
2023-05-08T10:43:12.535Z,97652.88
2023-05-08T10:45:39.547Z,97642.84
2023-05-08T10:48:33.309Z,97643.09
2023-05-08T10:51:12.774Z,97629.00
2023-05-08T10:54:06.542Z,97629.84
2023-05-08T10:56:33.356Z,97619.72
2023-05-08T10:58:59.964Z,97616.56
2023-05-08T11:01:26.824Z,97621.63
2023-05-08T11:03:56.100Z,97621.09
2023-05-08T11:06:46.607Z,97624.16
2023-05-08T11:09:21.438Z,97618.47
2023-05-08T11:11:59.272Z,97599.78
2023-05-08T11:14:27.072Z,97613.09
2023-05-08T11:16:53.721Z,97613.94
2023-05-08T11:19:22.213Z,97622.13
2023-05-08T11:22:24.061Z,97624.78
2023-05-08T11:24:56.393Z,97626.81
2023-05-08T11:28:00.864Z,97621.75
2023-05-08T11:30:34.889Z,97599.66
2023-05-08T11:33:05.235Z,97606.72
2023-05-08T11:35:42.260Z,97616.94
2023-05-08T11:38:17.086Z,97619.81
2023-05-08T11:40:53.273Z,97623.63
2023-05-08T11:43:37.704Z,97621.75
2023-05-08T11:46:08.492Z,97614.59
2023-05-08T11:48:36.031Z,97621.75
2023-05-08T11:51:03.895Z,97627.06
2023-05-08T11:53:31.470Z,97632.41
2023-05-08T11:55:59.838Z,97633.59
2023-05-08T11:58:26.869Z,97619.50
2023-05-08T12:00:54.761Z,97616.09
2023-05-08T12:03:23.232Z,97623.97
2023-05-08T12:05:50.577Z,97613.97
2023-05-08T12:08:18.754Z,97614.25
2023-05-08T12:10:56.920Z,97622.75
2023-05-08T12:13:26.093Z,97644.75
2023-05-08T12:15:58.199Z,97659.44
2023-05-08T12:18:26.544Z,97680.94
2023-05-08T12:20:58.536Z,97698.81
2023-05-08T12:23:26.533Z,97721.34
2023-05-08T12:25:56.548Z,97734.28
2023-05-08T12:28:23.145Z,97758.81
2023-05-08T12:30:50.235Z,97758.03
2023-05-08T12:33:18.653Z,97764.00
2023-05-08T12:35:45.422Z,97756.34
2023-05-08T12:38:12.523Z,97745.56
2023-05-08T12:40:47.814Z,97749.34
2023-05-08T12:43:14.918Z,97738.44
2023-05-08T12:45:43.002Z,97736.50
2023-05-08T12:48:12.137Z,97733.06
2023-05-08T12:50:43.375Z,97730.22
2023-05-08T12:53:11.461Z,97738.09
2023-05-08T12:55:40.293Z,97751.03
2023-05-08T12:58:15.584Z,97753.88
2023-05-08T13:00:52.002Z,97750.34
2023-05-08T13:03:25.716Z,97749.03
2023-05-08T13:05:54.135Z,97746.03
2023-05-08T13:08:21.123Z,97746.19
2023-05-08T13:10:51.931Z,97753.78
2023-05-08T13:13:20.427Z,97746.06
2023-05-08T13:15:57.473Z,97736.78
2023-05-08T13:18:26.997Z,97747.81
2023-05-08T13:20:57.252Z,97742.25
2023-05-08T13:23:24.439Z,97751.78
2023-05-08T13:25:51.528Z,97756.66
2023-05-08T13:28:18.103Z,97768.09
2023-05-08T13:30:44.648Z,97765.16
2023-05-08T13:33:11.491Z,97770.66
2023-05-08T13:35:38.705Z,97772.19
2023-05-08T13:38:06.131Z,97776.06
2023-05-08T13:40:32.893Z,97769.00
2023-05-08T13:42:59.553Z,97748.03
2023-05-08T13:45:26.519Z,97747.91
2023-05-08T13:47:53.299Z,97739.94
2023-05-08T13:50:25.211Z,97753.41
2023-05-08T13:52:54.738Z,97765.38
2023-05-08T13:55:23.450Z,97772.59
2023-05-08T13:57:50.630Z,97778.75
2023-05-08T14:00:18.210Z,97783.97
2023-05-08T14:02:45.012Z,97773.19
2023-05-08T14:05:12.147Z,97780.72
2023-05-08T14:07:46.742Z,97791.41
2023-05-08T14:10:13.432Z,97800.66
2023-05-08T14:12:40.523Z,97816.28
2023-05-08T14:15:07.963Z,97816.59
2023-05-08T14:17:34.702Z,97813.72
2023-05-08T14:20:01.280Z,97833.44
2023-05-08T14:22:28.032Z,97837.50
2023-05-08T14:24:54.677Z,97831.47
2023-05-08T14:27:21.918Z,97836.63
2023-05-08T14:29:48.780Z,97837.22
2023-05-08T14:32:15.505Z,97847.66
2023-05-08T14:34:42.289Z,97870.97
2023-05-08T14:37:08.918Z,97881.09
2023-05-08T14:39:35.622Z,97882.72
2023-05-08T14:42:18.242Z,97896.25
2023-05-08T14:44:49.230Z,97892.34
2023-05-08T14:47:16.054Z,97893.81
2023-05-08T14:49:42.790Z,97895.19
2023-05-08T14:52:09.490Z,97902.97
2023-05-08T14:54:36.272Z,97898.56
2023-05-08T14:57:03.070Z,97908.03
2023-05-08T14:59:29.796Z,97908.19
2023-05-08T15:01:56.467Z,97914.28
2023-05-08T15:04:23.413Z,97927.34
2023-05-08T15:06:50.163Z,97922.31
2023-05-08T15:09:17.104Z,97931.03
2023-05-08T15:11:44.046Z,97935.28
2023-05-08T15:14:10.710Z,97929.66
2023-05-08T15:16:37.547Z,97932.63
2023-05-08T15:19:04.368Z,97936.44
2023-05-08T15:21:31.195Z,97933.19
2023-05-08T15:23:57.862Z,97929.53
2023-05-08T15:26:24.571Z,97937.28
2023-05-08T15:28:51.505Z,97936.25
2023-05-08T15:31:18.470Z,97962.00
2023-05-08T15:33:45.702Z,97961.50
2023-05-08T15:36:15.570Z,97962.94
2023-05-08T15:38:42.577Z,97963.84
2023-05-08T15:41:15.400Z,97959.69
2023-05-08T15:43:43.004Z,97964.44
2023-05-08T15:46:09.972Z,97960.06
2023-05-08T15:48:36.692Z,97954.22
2023-05-08T15:51:03.509Z,97961.16
2023-05-08T15:53:30.389Z,97960.38
2023-05-08T15:55:57.438Z,97973.59
2023-05-08T15:58:24.184Z,97972.56
2023-05-08T16:00:55.835Z,97971.31
2023-05-08T16:03:22.704Z,97970.94
2023-05-08T16:05:49.756Z,97969.47
2023-05-08T16:08:16.411Z,97967.56
2023-05-08T16:10:56.965Z,97958.56
2023-05-08T16:13:47.632Z,97957.69
2023-05-08T16:16:14.677Z,97964.31
2023-05-08T16:18:41.336Z,97961.53
2023-05-08T16:24:45.856Z,97968.84
2023-05-08T16:27:23.705Z,97968.53
2023-05-08T16:29:50.305Z,97983.47
2023-05-08T16:32:30.701Z,97990.69
2023-05-08T16:35:00.496Z,97976.88
2023-05-08T16:37:28.681Z,97989.97
2023-05-08T16:40:02.094Z,97992.06
2023-05-08T16:42:29.262Z,97973.41
2023-05-08T16:44:55.853Z,97978.28
2023-05-08T16:47:22.601Z,97989.19
2023-05-08T16:50:01.927Z,97991.72
2023-05-08T16:52:49.999Z,97999.97
2023-05-08T16:55:16.798Z,98011.19
2023-05-08T16:57:50.227Z,98009.72
2023-05-08T17:00:28.641Z,98010.00
2023-05-08T17:02:58.526Z,98014.72
2023-05-08T17:05:54.603Z,98010.72
2023-05-08T17:08:21.098Z,98012.97
2023-05-08T17:10:47.552Z,98017.94
2023-05-08T17:15:40.561Z,98020.97
2023-05-08T17:18:07.180Z,98027.75
2023-05-08T17:20:40.755Z,98038.09
2023-05-08T17:23:07.473Z,98040.56
2023-05-08T17:25:33.921Z,98049.38
2023-05-08T17:30:48.215Z,98049.03
2023-05-08T17:36:30.681Z,98059.81
2023-05-08T17:38:57.178Z,98062.19
2023-05-08T17:41:23.695Z,98068.69
2023-05-08T17:46:39.678Z,98081.63
2023-05-08T17:49:06.388Z,98084.28
2023-05-08T17:51:33.422Z,98093.63
2023-05-08T17:54:24.763Z,98091.63
2023-05-08T17:56:51.387Z,98095.41
2023-05-08T17:59:17.881Z,98094.00
2023-05-08T18:01:44.392Z,98097.13
2023-05-08T18:04:12.931Z,98093.91
2023-05-08T18:06:39.582Z,98097.25
2023-05-08T18:09:06.140Z,98094.97
2023-05-08T18:11:35.529Z,98099.88
2023-05-08T18:14:02.264Z,98096.94
2023-05-08T18:16:28.853Z,98110.13
2023-05-08T18:19:04.005Z,98099.28
2023-05-08T18:21:31.664Z,98105.91
2023-05-08T18:23:59.268Z,98106.19
2023-05-08T18:26:25.935Z,98108.69
2023-05-08T18:28:52.492Z,98104.56
2023-05-08T18:31:19.311Z,98119.53
2023-05-08T18:33:45.900Z,98126.38
2023-05-08T18:36:26.759Z,98126.28
2023-05-08T18:38:53.346Z,98142.38
2023-05-08T18:41:20.149Z,98136.16
2023-05-08T18:43:47.006Z,98151.22
2023-05-08T18:46:30.252Z,98166.34
2023-05-08T18:48:56.974Z,98162.09
2023-05-08T18:51:23.499Z,98162.19
2023-05-08T18:53:50.030Z,98174.59
2023-05-08T18:56:21.138Z,98165.84
2023-05-08T18:58:47.666Z,98178.38
2023-05-08T19:01:16.409Z,98173.16
2023-05-08T19:03:43.072Z,98180.97
2023-05-08T19:09:05.453Z,98186.97
2023-05-08T19:11:31.970Z,98187.22
2023-05-08T19:13:58.754Z,98193.38
2023-05-08T19:16:25.537Z,98198.09
2023-05-08T19:19:02.829Z,98199.66
2023-05-08T19:21:29.531Z,98201.59
2023-05-08T19:23:56.096Z,98196.56
2023-05-08T19:26:22.908Z,98196.72
2023-05-08T19:28:49.365Z,98196.72
2023-05-08T19:31:15.960Z,98200.38
2023-05-08T19:33:44.046Z,98200.50
2023-05-08T19:36:10.550Z,98204.94
2023-05-08T19:38:40.083Z,98214.81
2023-05-08T19:41:07.118Z,98209.41
2023-05-08T19:43:33.591Z,98219.28
2023-05-08T19:46:02.812Z,98216.66
2023-05-08T19:48:35.202Z,98222.06
2023-05-08T19:51:08.462Z,98227.72
2023-05-08T19:53:35.069Z,98224.13
2023-05-08T19:56:01.533Z,98223.97
2023-05-08T19:58:28.053Z,98223.53
2023-05-08T20:00:54.643Z,98228.78
2023-05-08T20:03:21.285Z,98226.97
2023-05-08T20:05:48.005Z,98217.63
2023-05-08T20:08:14.624Z,98224.00
2023-05-08T20:10:41.197Z,98235.72
2023-05-08T20:13:07.784Z,98232.88
2023-05-08T20:15:34.241Z,98237.50
2023-05-08T20:18:00.725Z,98236.63
2023-05-08T20:20:31.462Z,98234.72
2023-05-08T20:22:58.142Z,98238.41
2023-05-08T20:25:24.662Z,98236.63
2023-05-08T20:27:51.205Z,98227.03
2023-05-08T20:30:17.815Z,98230.19
2023-05-08T20:32:44.450Z,98237.50
2023-05-08T20:35:11.130Z,98243.25
2023-05-08T20:37:44.631Z,98246.06
2023-05-08T20:40:11.760Z,98240.13
2023-05-08T20:42:38.766Z,98247.16
2023-05-08T20:45:05.461Z,98246.34
2023-05-08T20:47:32.082Z,98243.78
2023-05-08T20:49:58.626Z,98244.47
2023-05-08T20:52:25.148Z,98237.63
2023-05-08T20:54:51.619Z,98245.53
2023-05-08T20:57:18.453Z,98243.22
2023-05-08T20:59:47.327Z,98246.88
2023-05-08T21:02:14.001Z,98246.94
2023-05-08T21:04:40.626Z,98243.69
2023-05-08T21:07:07.197Z,98241.16
2023-05-08T21:09:33.724Z,98239.50
2023-05-08T21:12:00.708Z,98244.09
2023-05-08T21:14:27.248Z,98250.31
2023-05-08T21:16:56.500Z,98242.69
2023-05-08T21:19:23.795Z,98250.50
2023-05-08T21:21:50.249Z,98254.78
2023-05-08T21:24:16.811Z,98252.75
2023-05-08T21:26:43.448Z,98256.19
2023-05-08T21:29:10.918Z,98257.31
2023-05-08T21:31:37.501Z,98258.38
2023-05-08T21:34:04.059Z,98257.50
2023-05-08T21:36:32.162Z,98249.69
2023-05-08T21:38:58.700Z,98253.28
2023-05-08T21:41:25.192Z,98252.44
2023-05-08T21:43:51.682Z,98258.53
2023-05-08T21:46:18.223Z,98251.66
2023-05-08T21:48:44.784Z,98252.44
2023-05-08T21:51:11.299Z,98247.34
2023-05-08T21:53:37.792Z,98251.88
2023-05-08T21:56:04.359Z,98245.00
2023-05-08T21:58:30.999Z,98245.91
2023-05-08T22:00:58.661Z,98249.44
2023-05-08T22:03:25.515Z,98240.69
2023-05-08T22:05:52.140Z,98250.38
2023-05-08T22:08:18.631Z,98252.22
2023-05-08T22:10:46.312Z,98248.78
2023-05-08T22:13:15.368Z,98249.63
2023-05-08T22:15:42.848Z,98244.41
2023-05-08T22:18:09.466Z,98247.78
2023-05-08T22:20:36.055Z,98254.00
2023-05-08T22:23:02.784Z,98248.88
2023-05-08T22:25:29.443Z,98243.59
2023-05-08T22:27:56.109Z,98251.59
2023-05-08T22:30:23.868Z,98251.63
2023-05-08T22:32:55.975Z,98250.94
2023-05-08T22:35:24.445Z,98250.03
2023-05-08T22:37:52.424Z,98257.13
2023-05-08T22:40:19.276Z,98257.16
2023-05-08T22:42:46.459Z,98251.88
2023-05-08T22:45:15.332Z,98258.06
2023-05-08T22:47:42.469Z,98256.38
2023-05-08T22:50:12.490Z,98256.41
2023-05-08T22:52:39.546Z,98256.38
2023-05-08T22:55:06.509Z,98267.84
2023-05-08T22:57:33.037Z,98267.00
2023-05-08T22:59:59.503Z,98267.03
2023-05-08T23:02:31.211Z,98260.09
2023-05-08T23:04:57.864Z,98255.72
2023-05-08T23:07:24.310Z,98267.94
2023-05-08T23:09:50.856Z,98261.81
2023-05-08T23:12:17.264Z,98262.88
2023-05-08T23:14:46.550Z,98261.09
2023-05-08T23:17:14.111Z,98261.13
2023-05-08T23:19:41.515Z,98258.59
2023-05-08T23:22:08.983Z,98271.75
2023-05-08T23:24:36.185Z,98265.66
2023-05-08T23:27:02.877Z,98263.09
2023-05-08T23:29:29.593Z,98262.28
2023-05-08T23:31:56.186Z,98260.47
2023-05-08T23:34:22.852Z,98253.56
2023-05-08T23:36:49.468Z,98256.19
2023-05-08T23:39:18.567Z,98256.28
2023-05-08T23:41:45.304Z,98258.09
2023-05-08T23:44:11.996Z,98259.72
2023-05-08T23:46:38.586Z,98258.78
2023-05-08T23:49:05.700Z,98258.75
2023-05-08T23:51:34.188Z,98258.75
2023-05-08T23:54:01.100Z,98254.53
2023-05-08T23:56:27.745Z,98258.00
2023-05-08T23:58:54.381Z,98259.75
